Date,TemperatureHighF,TemperatureAvgF,TemperatureLowF,DewpointHighF,DewpointAvgF,DewpointLowF,HumidityHigh,HumidityAvg,HumidityLow,PressureMaxIn,PressureMinIn,WindSpeedMaxMPH,WindSpeedAvgMPH,GustSpeedMaxMPH,PrecipitationSumIn
2013-1-1,58,52,46,44,32,14,79,51,19,30.24,30.11,12,2,22,0.00
2013-1-2,65,58,54,45,21,12,50,25,17,30.15,30.02,16,5,30,0.00
2013-1-3,69,60,52,39,15,6,49,18,12,30.15,30.04,15,6,29,0.00
2013-1-4,66,58,51,45,18,5,58,23,11,30.26,30.14,12,2,23,0.00
2013-1-5,61,54,50,44,31,16,73,42,23,30.29,30.18,3,0,9,0.00
2013-1-6,56,50,46,48,44,37,94,82,67,30.20,30.04,4,0,9,0.02
2013-1-7,64,56,48,48,34,20,67,46,19,30.14,30.01,10,2,21,0.01
2013-1-8,69,60,53,50,37,23,72,43,26,30.11,30.03,1,0,6,0.00
2013-1-9,65,56,49,55,46,30,95,72,35,30.13,30.01,2,0,4,0.00
2013-1-10,58,50,43,47,38,26,91,66,38,30.12,29.93,6,1,16,0.00
2013-1-11,54,47,40,35,25,18,53,43,31,30.21,30.07,8,2,20,0.00
2013-1-12,55,47,43,30,23,19,53,39,28,30.17,30.08,11,3,22,0.00
2013-1-13,57,48,42,32,24,10,60,40,24,30.18,30.06,12,2,25,0.00
2013-1-14,56,46,39,24,4,-1,30,18,13,30.35,30.12,19,9,35,0.00
2013-1-15,57,51,44,41,19,2,66,30,17,30.47,30.33,9,2,18,0.00
2013-1-16,67,59,50,49,28,19,64,32,17,30.37,30.13,9,2,16,0.00
2013-1-17,73,67,60,46,18,9,44,16,9,30.16,30.04,12,5,26,0.00
2013-1-18,76,69,64,37,17,9,24,14,10,30.14,30.04,11,4,21,0.00
2013-1-19,77,70,64,34,16,5,22,13,8,30.17,30.07,9,4,18,0.00
2013-1-20,77,71,65,34,13,-1,22,11,6,30.12,30.00,13,4,24,0.00
2013-1-21,77,72,65,32,10,-3,21,10,5,30.09,29.97,12,4,29,0.00
2013-1-22,78,69,63,39,16,2,26,14,7,30.08,29.99,3,0,8,0.00
2013-1-23,74,66,53,48,30,7,83,31,9,30.10,30.00,8,0,16,0.11
2013-1-24,61,56,52,56,53,48,97,89,78,30.19,30.07,9,2,17,0.85
2013-1-25,62,60,57,57,54,51,93,83,70,30.14,29.96,7,3,14,0.56
2013-1-26,67,58,51,59,54,50,97,86,72,29.99,29.89,5,0,11,0.27
2013-1-27,60,53,47,53,45,26,96,76,38,30.04,29.94,8,0,17,0.00
2013-1-28,57,51,45,47,32,24,68,50,38,30.19,30.03,6,1,11,0.04
2013-1-29,59,51,46,44,36,28,76,56,44,30.24,30.15,6,1,10,0.04
2013-1-30,67,57,48,49,41,33,71,55,37,30.35,30.22,2,0,5,0.00
2013-1-31,73,65,50,53,43,34,74,45,31,30.22,30.10,3,0,10,0.00
2013-2-1,72,65,58,52,41,34,58,42,31,30.16,30.09,1,0,6,0.00
2013-2-2,72,66,60,50,42,36,53,42,28,30.19,30.10,13,2,23,0.00
2013-2-3,74,66,54,54,46,41,83,49,37,30.12,29.97,7,2,15,0.00
2013-2-4,64,56,50,55,49,40,94,78,59,30.09,29.97,2,0,7,0.00
2013-2-5,52,50,49,50,49,48,96,94,91,30.11,30.01,1,0,7,0.00
2013-2-6,61,53,47,52,48,43,93,84,68,30.11,30.02,3,0,7,0.00
2013-2-7,56,51,47,50,46,42,94,85,74,30.14,30.00,3,0,11,0.00
2013-2-8,52,46,42,45,40,37,93,79,66,30.00,29.88,4,1,12,0.04
2013-2-9,57,48,41,45,37,31,86,66,55,30.11,29.95,2,0,7,0.01
2013-2-10,55,48,44,45,41,37,85,78,69,30.11,30.03,3,1,8,0.00
2013-2-11,60,52,44,44,23,-100,76,49,27,30.24,30.08,11,1,13,0.00
2013-2-12,61,53,46,45,31,15,68,43,26,30.35,30.24,4,0,9,0.00
2013-2-13,63,54,45,50,39,28,81,56,38,30.27,30.14,1,0,6,0.00
2013-2-14,67,59,49,54,39,27,72,50,22,30.21,30.08,2,0,9,0.00
2013-2-15,79,71,57,38,26,18,48,19,13,30.18,30.11,13,4,26,0.00
2013-2-16,78,70,61,41,20,11,30,15,11,30.14,29.95,6,1,12,0.00
2013-2-17,66,58,50,53,28,-100,93,52,14,30.01,29.91,3,0,8,0.00
2013-2-18,61,53,49,49,35,-100,86,72,64,30.06,29.96,3,0,9,0.00
2013-2-19,56,49,42,47,42,36,93,80,62,29.99,29.72,6,0,18,0.32
2013-2-20,58,49,40,45,35,26,71,59,41,30.00,29.72,7,2,20,0.14
2013-2-21,58,51,44,47,38,27,80,62,35,30.10,30.00,7,1,15,0.00
2013-2-22,62,54,47,50,38,28,83,55,40,30.20,30.10,1,0,4,0.00
2013-2-23,60,53,43,51,36,-100,87,60,28,30.17,29.91,11,1,27,0.00
2013-2-24,64,56,52,40,16,6,52,22,11,30.19,29.97,20,9,42,0.00
2013-2-25,64,56,47,46,28,5,83,38,13,30.22,30.06,3,0,8,0.00
2013-2-26,65,56,46,51,37,15,86,55,16,30.11,30.00,9,1,18,0.00
2013-2-27,72,64,58,41,16,8,36,16,11,30.27,30.11,13,4,26,0.00
2013-2-28,74,66,60,50,20,7,52,18,11,30.31,30.23,7,2,14,0.00
2013-3-1,82,74,64,47,23,14,36,15,11,30.28,30.14,9,2,19,0.00
2013-3-2,80,72,54,50,32,22,84,25,16,30.19,30.06,2,0,9,0.00
2013-3-3,67,58,50,56,48,24,90,71,22,30.08,29.97,4,0,9,0.00
2013-3-4,63,54,49,53,49,46,95,83,69,30.11,30.01,2,0,8,0.00
2013-3-5,60,52,49,52,48,45,95,89,76,30.14,30.05,0,0,5,0.00
2013-3-6,56,50,45,49,46,41,94,84,66,30.16,30.01,0,0,6,0.01
2013-3-7,59,52,48,51,47,42,95,85,66,30.02,29.83,3,0,9,0.17
2013-3-8,56,50,44,48,44,40,95,81,66,30.03,29.79,5,1,12,0.69
2013-3-9,62,54,44,50,43,34,83,68,44,30.21,30.02,4,0,13,0.01
2013-3-10,76,59,47,52,39,22,85,53,17,30.27,30.15,5,0,11,0.00
2013-3-11,68,61,54,52,40,27,63,46,30,30.17,30.04,1,0,6,0.00
2013-3-12,70,61,48,54,44,32,89,57,28,30.09,30.01,1,0,5,0.00
2013-3-13,81,70,58,57,42,31,57,36,21,30.10,30.01,1,0,8,0.00
2013-3-14,80,66,50,55,47,38,85,53,28,30.08,29.98,1,0,6,0.00
2013-3-15,65,55,49,56,52,46,96,89,71,30.03,29.94,7,0,13,0.00
2013-3-16,56,51,49,53,50,48,98,96,86,29.99,29.90,1,0,7,0.00
2013-3-17,57,51,49,52,49,48,98,94,84,30.02,29.95,1,0,7,0.01
2013-3-18,62,55,50,53,4,-100,95,60,71,30.09,29.99,15,3,18,0.01
2013-3-19,61,55,50,54,-8,-100,96,56,82,30.12,30.04,11,2,15,0.00
2013-3-20,65,57,50,56,36,-100,96,74,64,30.10,29.96,13,0,18,0.00
2013-3-21,67,59,51,56,3,-100,88,53,62,29.96,29.80,23,1,28,0.00
2013-3-22,64,58,51,56,48,31,88,70,35,29.90,29.79,4,0,9,0.00
2013-3-23,66,58,50,55,50,36,92,75,47,30.02,29.90,4,0,13,0.00
2013-3-24,67,58,50,56,50,39,95,78,51,30.02,29.88,2,0,9,0.00
2013-3-25,66,59,51,57,50,42,90,72,50,29.98,29.89,2,0,8,0.00
2013-3-26,63,55,50,54,50,42,94,83,52,29.98,29.90,3,0,10,0.00
2013-3-27,66,56,51,54,50,48,93,83,62,30.04,29.93,5,0,11,0.00
2013-3-28,64,56,51,55,48,-100,94,84,73,30.09,30.01,3,0,6,0.00
2013-3-29,65,54,50,57,52,49,97,92,75,30.13,30.04,2,0,8,0.00
2013-3-30,61,54,51,56,52,50,98,93,78,30.14,30.06,1,0,5,0.01
2013-3-31,65,56,53,56,48,-100,97,90,85,30.14,30.07,5,0,10,0.25
2013-4-1,61,56,50,56,53,48,100,91,80,30.18,30.07,6,1,13,0.01
2013-4-2,65,56,49,57,52,47,95,84,71,30.11,30.00,2,0,9,0.01
2013-4-3,66,57,52,57,54,50,96,87,74,30.09,29.99,6,0,12,0.01
2013-4-4,64,57,52,58,55,51,99,92,79,30.13,30.00,11,3,27,0.00
2013-4-5,63,57,52,58,54,50,97,90,75,30.10,29.98,7,1,16,0.01
2013-4-6,66,58,53,56,53,50,95,85,67,30.10,29.93,2,0,10,0.00
2013-4-7,71,62,53,58,16,-100,94,62,61,29.97,29.80,4,0,10,0.01
2013-4-8,67,56,51,51,43,-100,92,69,43,29.84,29.65,3,1,14,0.01
2013-4-9,73,62,53,44,35,22,53,38,19,29.98,29.84,7,1,21,0.00
2013-4-10,78,69,56,47,33,19,60,28,14,30.09,29.96,5,1,21,0.00
2013-4-11,68,61,52,52,46,36,87,58,37,29.97,29.76,5,0,13,0.00
2013-4-12,64,56,51,53,51,49,95,84,67,29.89,29.78,1,0,7,0.00
2013-4-13,66,55,51,55,43,-100,98,89,87,29.93,29.85,5,1,10,0.01
2013-4-14,65,55,51,53,40,-100,98,85,82,29.89,29.83,3,0,6,0.02
2013-4-15,62,54,47,53,50,43,94,84,69,29.91,29.83,1,0,5,0.01
2013-4-16,61,54,44,48,42,26,90,67,29,30.02,29.87,6,1,17,0.00
2013-4-17,65,58,53,49,34,21,74,43,22,30.12,30.02,13,3,25,0.00
2013-4-18,75,67,58,44,20,12,36,17,11,30.20,30.10,20,6,34,0.00
2013-4-19,79,66,53,54,34,17,90,37,14,30.16,29.95,7,1,18,0.00
2013-4-20,81,68,54,55,12,-100,87,38,26,29.97,29.87,12,1,15,0.00
2013-4-21,71,65,57,55,-56,-100,83,22,71,30.00,29.92,9,2,17,0.00
2013-4-22,68,58,54,55,41,-100,93,78,69,30.00,29.89,8,0,12,0.00
2013-4-23,69,59,53,56,23,-100,94,67,70,29.98,29.87,15,3,19,0.00
2013-4-24,57,54,52,55,52,48,98,94,85,30.00,29.90,0,0,4,0.06
2013-4-25,70,60,52,54,-2,-100,85,52,68,30.11,29.97,9,1,11,0.01
2013-4-26,69,60,53,56,51,45,91,73,55,30.16,30.09,2,0,6,0.00
2013-4-27,66,60,51,57,54,50,96,82,71,30.14,29.97,2,0,9,0.00
2013-4-28,63,56,53,57,54,51,97,91,79,30.01,29.86,3,0,8,0.00
2013-4-29,62,56,53,57,54,52,98,94,82,29.91,29.79,1,0,8,0.01
2013-4-30,68,58,54,56,42,-100,96,82,77,29.89,29.83,11,1,13,0.00
2013-5-1,69,61,55,58,54,52,93,81,64,30.09,29.89,1,0,8,0.00
2013-5-2,83,68,53,58,40,-16,91,54,2,30.14,29.98,10,1,24,0.00
2013-5-3,89,80,68,47,18,-10,33,12,3,29.99,29.75,7,2,16,0.00
2013-5-4,68,61,55,59,55,46,90,79,49,29.84,29.72,9,2,17,0.00
2013-5-5,60,56,54,54,52,50,91,85,77,29.93,29.82,3,0,9,0.00
2013-5-6,67,59,54,60,55,53,98,88,67,30.01,29.89,1,0,7,0.36
2013-5-7,66,59,55,58,53,48,90,80,68,30.06,29.98,2,0,7,0.01
2013-5-8,69,60,55,57,34,-100,91,69,64,30.10,30.05,11,1,15,0.00
2013-5-9,67,59,53,57,53,48,93,81,67,30.09,30.01,1,0,8,0.00
2013-5-10,68,60,56,60,54,-100,95,84,73,30.10,29.99,2,0,9,0.00
2013-5-11,80,63,55,62,57,-100,96,82,48,30.07,29.97,1,0,7,0.00
2013-5-12,92,72,55,63,57,48,96,64,27,30.04,29.89,2,0,9,0.00
2013-5-13,91,83,75,61,50,25,53,34,11,29.96,29.85,5,0,16,0.00
2013-5-14,82,64,55,58,52,26,88,68,13,29.98,29.85,3,0,17,0.00
2013-5-15,68,60,55,58,54,51,94,82,68,30.05,29.94,2,0,9,0.00
2013-5-16,67,56,54,58,38,-100,93,84,70,29.99,29.90,1,0,7,0.00
2013-5-17,69,61,56,59,51,-100,93,81,69,29.99,29.90,1,0,7,0.00
2013-5-18,69,61,55,58,54,49,90,78,66,30.04,29.96,2,0,8,0.00
2013-5-19,70,62,55,60,55,48,93,80,69,29.98,29.88,1,0,8,0.00
2013-5-20,74,64,57,62,58,53,93,78,63,29.95,29.86,3,0,10,0.00
2013-5-21,71,62,56,62,58,54,96,88,72,29.94,29.83,2,0,8,0.00
2013-5-22,70,61,54,59,54,48,95,79,61,29.85,29.77,1,0,7,0.00
2013-5-23,68,61,54,56,52,46,84,73,58,29.93,29.82,1,0,7,0.00
2013-5-24,67,60,54,57,53,42,87,76,62,30.00,29.90,2,0,7,0.00
2013-5-25,66,60,55,57,53,48,90,80,72,30.04,29.95,2,0,9,0.00
2013-5-26,67,60,54,58,54,49,91,80,68,30.06,29.98,2,0,8,0.00
2013-5-27,69,62,55,60,55,51,93,80,64,30.01,29.85,4,0,10,0.00
2013-5-28,75,64,57,61,57,53,93,78,49,29.88,29.72,2,0,9,0.00
2013-5-29,78,65,57,61,57,54,94,78,44,29.81,29.67,2,0,11,0.00
2013-5-30,73,64,59,62,59,55,94,83,69,29.86,29.76,2,0,8,0.00
2013-5-31,71,63,58,61,59,56,95,86,70,29.91,29.81,1,0,7,0.00
2013-6-1,70,62,58,63,59,57,98,89,74,29.85,29.75,0,0,5,0.00
2013-6-2,64,61,59,60,59,57,96,93,86,29.83,29.77,1,0,9,0.00
2013-6-3,67,61,58,60,57,55,96,87,78,29.90,29.79,0,0,7,0.00
2013-6-4,68,61,57,59,57,54,95,85,71,29.96,29.88,1,0,5,0.00
2013-6-5,67,60,56,59,56,53,94,86,74,30.01,29.91,1,0,9,0.00
2013-6-6,64,59,56,58,56,54,96,91,82,29.96,29.88,1,0,7,0.00
2013-6-7,61,58,56,58,56,54,96,94,89,29.91,29.80,0,0,3,0.00
2013-6-8,64,59,57,60,57,56,98,94,85,29.91,29.79,0,0,4,0.01
2013-6-9,64,59,58,60,57,55,97,92,84,29.94,29.88,0,0,4,0.01
2013-6-10,71,62,56,59,56,52,94,81,64,29.97,29.89,1,0,6,0.00
2013-6-11,70,63,57,62,58,54,94,85,69,29.94,29.87,1,0,6,0.00
2013-6-12,65,59,57,61,58,55,98,94,83,30.03,29.92,0,0,4,0.00
2013-6-13,65,59,56,60,57,55,97,92,81,30.03,29.90,2,0,7,0.00
2013-6-14,68,61,56,60,57,55,96,89,74,29.93,29.85,3,0,11,0.00
2013-6-15,68,61,57,60,57,54,96,88,71,29.97,29.89,0,0,5,0.00
2013-6-16,68,60,55,59,56,53,96,87,70,30.04,29.95,3,0,11,0.00
2013-6-17,69,60,53,61,57,52,98,90,74,29.99,29.88,0,0,4,0.00
2013-6-18,72,63,57,62,57,52,95,81,59,29.93,29.82,1,0,8,0.00
2013-6-19,73,64,56,59,55,51,89,73,51,29.88,29.78,1,0,8,0.00
2013-6-20,74,64,58,61,55,48,78,71,61,29.86,29.79,1,0,7,0.00
2013-6-21,73,72,67,62,62,61,80,71,68,29.89,29.83,0,0,3,0.00
2013-6-22,71,67,58,62,60,56,93,78,69,29.91,29.82,1,0,7,0.00
2013-6-23,69,62,57,61,58,54,94,88,75,29.89,29.79,1,0,8,0.00
2013-6-24,68,62,57,61,58,54,95,88,77,29.95,29.82,3,0,9,0.00
2013-6-25,69,62,58,62,59,56,94,88,76,30.01,29.90,0,0,5,0.00
2013-6-26,75,67,59,65,62,57,98,83,66,29.98,29.90,2,0,6,0.00
2013-6-27,80,69,61,68,62,59,96,80,53,30.02,29.95,3,0,13,0.00
2013-6-28,80,68,59,66,62,58,98,81,59,29.97,29.86,1,0,5,0.00
2013-6-29,85,73,61,66,63,59,96,71,51,29.88,29.72,1,0,6,0.00
2013-6-30,85,75,65,68,64,59,94,71,52,29.80,29.69,1,0,7,0.00
2013-7-1,83,69,62,69,64,61,97,85,63,29.89,29.78,1,0,8,0.00
2013-7-2,75,67,62,66,63,59,98,86,71,30.01,29.86,1,0,4,0.00
2013-7-3,73,65,59,65,61,58,97,89,75,29.93,29.80,0,0,5,0.00
2013-7-4,73,65,60,64,61,59,98,88,72,29.84,29.75,0,0,5,0.00
2013-7-5,72,65,60,64,61,58,95,89,74,29.85,29.77,1,0,12,0.00
2013-7-6,70,64,61,65,61,59,96,92,80,29.83,29.76,7,1,16,0.00
2013-7-7,71,64,60,63,60,58,97,89,75,29.85,29.77,1,0,6,0.00
2013-7-8,77,66,57,64,58,-100,96,80,44,29.92,29.84,4,0,12,0.00
2013-7-9,76,70,63,64,60,50,84,71,55,29.99,29.89,2,0,8,0.00
2013-7-10,72,65,60,66,60,-100,95,86,75,29.98,29.89,3,0,8,0.00
2013-7-11,72,67,63,66,63,61,94,88,79,29.96,29.88,1,0,9,0.00
2013-7-12,75,66,59,66,62,58,97,87,70,29.93,29.85,2,0,7,0.00
2013-7-13,70,62,58,62,59,57,98,90,75,29.96,29.85,0,0,6,0.00
2013-7-14,73,64,57,64,59,56,98,87,67,29.94,29.81,5,0,10,0.00
2013-7-15,76,68,62,62,58,51,90,73,51,29.87,29.78,8,0,19,0.00
2013-7-16,72,64,56,61,56,47,94,75,45,29.97,29.85,6,1,15,0.00
2013-7-17,78,69,59,61,54,46,85,60,40,30.01,29.93,1,0,8,0.00
2013-7-18,73,66,58,62,57,50,93,75,62,29.97,29.83,0,0,6,0.00
2013-7-19,72,64,57,63,58,54,96,82,65,29.91,29.82,1,0,5,0.00
2013-7-20,69,62,58,64,58,-100,94,89,80,29.88,29.78,0,0,6,0.00
2013-7-21,67,64,60,63,61,59,96,93,87,29.92,29.81,0,0,5,0.00
2013-7-22,73,65,60,66,61,58,98,90,73,29.98,29.90,0,0,4,0.00
2013-7-23,70,63,58,64,60,57,97,90,80,30.03,29.92,9,2,16,0.00
2013-7-24,68,62,58,61,59,56,97,89,74,29.98,29.88,1,0,7,0.00
2013-7-25,68,62,58,61,59,57,97,90,77,30.01,29.92,0,0,5,0.01
2013-7-26,75,64,58,62,59,57,97,85,63,30.10,29.97,0,0,4,0.01
2013-7-27,70,62,56,62,59,55,98,88,71,30.01,29.88,0,0,5,0.00
2013-7-28,62,59,56,61,58,55,100,95,89,29.94,29.88,0,0,4,0.02
2013-7-29,69,62,57,61,57,54,97,86,72,30.02,29.92,1,0,5,0.01
2013-7-30,69,61,57,60,57,54,96,87,71,30.14,30.02,1,0,5,0.00
2013-7-31,68,61,56,60,57,55,96,88,72,30.12,30.00,7,1,15,0.00
2013-8-1,68,61,56,59,57,55,97,88,71,30.03,29.91,1,0,8,0.00
2013-8-2,72,63,57,63,59,56,96,87,71,29.97,29.90,2,0,8,0.01
2013-8-3,71,64,57,63,60,56,95,87,73,30.00,29.93,6,0,12,0.01
2013-8-4,69,61,56,61,58,55,98,91,76,30.03,29.92,6,0,15,0.00
2013-8-5,71,61,54,61,57,53,98,88,70,30.01,29.92,1,0,6,0.01
2013-8-6,70,62,55,61,57,54,97,86,68,30.04,29.96,1,0,7,0.01
2013-8-7,70,62,56,61,58,54,96,86,71,30.07,29.97,1,0,8,0.05
2013-8-8,72,62,56,61,57,53,96,85,69,30.00,29.89,1,0,6,0.05
2013-8-9,70,62,56,60,57,54,96,86,70,29.97,29.90,6,0,13,0.00
2013-8-10,70,62,57,61,58,54,96,86,70,30.03,29.95,2,0,7,0.00
2013-8-11,71,62,57,62,58,56,97,88,70,29.99,29.88,1,0,7,0.00
2013-8-12,71,63,57,62,59,56,96,87,72,29.98,29.88,2,0,9,0.00
2013-8-13,72,62,57,63,57,-100,98,88,72,29.98,29.85,2,0,8,0.00
2013-8-14,72,62,58,64,57,-100,99,92,74,29.94,29.84,0,0,7,0.00
2013-8-15,74,59,59,65,46,-100,99,86,72,29.95,29.88,0,0,6,0.00
2013-8-16,75,63,56,65,57,-100,98,86,71,29.96,29.88,0,0,4,0.01
2013-8-17,77,64,56,64,58,-100,98,83,60,29.95,29.79,2,0,7,0.01
2013-8-18,71,62,55,63,59,54,98,90,75,29.90,29.82,1,0,6,0.00
2013-8-19,67,59,58,64,51,-100,99,92,84,29.95,29.85,0,0,8,0.00
2013-8-20,73,63,57,63,57,-100,98,86,69,29.94,29.83,0,0,6,0.00
2013-8-21,81,68,58,62,58,50,95,73,39,29.91,29.82,1,0,4,0.00
2013-8-22,85,73,60,62,57,47,89,59,34,29.91,29.77,2,0,6,0.00
2013-8-23,82,70,59,62,57,49,86,64,43,29.85,29.71,1,0,9,0.00
2013-8-24,73,63,55,62,56,-100,95,81,65,29.87,29.76,2,0,9,0.00
2013-8-25,75,65,53,63,57,45,97,77,60,29.91,29.84,0,0,5,0.00
2013-8-26,86,80,66,61,55,43,73,43,25,29.91,29.80,0,0,4,0.00
2013-8-27,82,76,70,65,61,52,70,61,45,29.82,29.76,0,0,2,0.00
2013-8-28,88,82,74,63,54,45,60,38,24,29.86,29.78,1,0,9,0.00
2013-8-29,91,78,69,61,54,47,59,44,30,29.91,29.85,1,0,7,0.00
2013-8-30,93,84,77,67,62,50,69,49,36,29.95,29.88,1,0,7,0.00
2013-8-31,88,78,73,69,62,-100,79,62,45,29.95,29.85,1,0,7,0.00
2013-9-1,83,74,67,68,66,63,93,77,57,29.91,29.83,4,0,11,0.00
2013-9-2,83,72,63,69,66,62,97,80,57,29.92,29.77,2,0,7,0.00
2013-9-3,87,79,69,68,64,59,85,62,46,29.89,29.78,1,0,7,0.00
2013-9-4,90,76,66,66,62,58,89,63,44,29.89,29.82,3,0,7,0.00
2013-9-5,93,80,65,64,59,49,90,51,24,29.88,29.78,1,0,6,0.00
2013-9-6,92,83,73,62,56,49,58,40,27,29.85,29.74,1,0,9,0.00
2013-9-7,91,77,68,60,50,-100,68,42,26,29.84,29.75,2,0,10,0.00
2013-9-8,77,70,61,62,57,46,86,64,47,29.83,29.72,0,0,5,0.00
2013-9-9,71,62,57,62,58,54,95,85,69,29.82,29.74,0,0,6,0.00
2013-9-10,73,63,57,60,58,56,96,84,64,29.93,29.80,0,0,4,0.00
2013-9-11,73,64,58,62,59,56,95,83,65,30.00,29.91,0,0,4,0.00
2013-9-12,77,68,57,64,58,52,95,73,52,29.93,29.80,0,0,6,0.00
2013-9-13,77,69,62,64,58,50,77,68,59,29.82,29.65,0,0,6,0.00
2013-9-14,79,71,62,65,57,-100,79,65,47,29.71,29.61,0,0,5,0.00
2013-9-15,86,72,62,64,59,52,89,68,38,29.75,29.66,2,0,9,0.00
2013-9-16,87,73,63,64,56,47,76,57,35,29.81,29.70,1,0,7,0.00
2013-9-17,67,62,57,61,57,50,96,83,65,29.81,29.71,2,0,7,0.00
2013-9-18,60,59,57,58,57,55,97,94,90,29.78,29.75,2,0,8,0.00
2013-9-19,71,63,57,62,59,55,93,86,73,29.83,29.75,0,0,4,0.00
2013-9-20,66,64,60,63,61,58,93,91,86,29.89,29.81,4,1,9,0.00
2013-9-21,74,64,59,61,57,-100,92,80,60,29.91,29.79,1,0,7,0.00
2013-9-22,75,64,56,60,54,42,90,72,45,29.85,29.77,2,0,9,0.00
2013-9-23,90,74,61,54,48,34,73,44,19,29.87,29.80,2,0,7,0.00
2013-9-24,83,73,62,60,49,35,91,48,26,29.91,29.81,2,0,7,0.00
2013-9-25,74,65,56,61,56,50,90,74,53,29.83,29.68,2,0,11,0.00
2013-9-26,73,63,56,57,50,38,84,64,40,29.88,29.71,2,0,14,0.00
2013-9-27,79,72,62,50,37,31,47,28,20,29.97,29.89,13,2,36,0.00
2013-9-28,85,76,67,47,35,-100,34,24,16,30.01,29.95,0,0,4,0.00
2013-9-29,81,73,60,59,45,29,66,37,27,30.05,29.94,1,0,6,0.00
2013-9-30,78,70,61,61,54,35,87,59,35,29.96,29.83,1,0,6,0.00
2013-10-1,70,65,61,61,56,53,83,74,66,29.90,29.85,1,0,7,0.00
2013-10-2,75,65,57,61,58,55,93,80,59,29.96,29.87,1,0,7,0.00
2013-10-3,71,63,57,61,58,54,94,85,69,29.93,29.82,1,0,6,0.00
2013-10-4,81,68,59,58,36,10,91,52,7,30.02,29.87,15,6,33,0.00
2013-10-5,86,79,74,38,19,10,18,11,7,30.09,30.00,15,8,32,0.00
2013-10-6,91,82,75,38,23,8,23,12,7,30.04,29.93,7,2,14,0.00
2013-10-7,80,68,61,58,47,25,81,50,19,29.95,29.88,0,0,4,0.00
2013-10-8,71,62,56,59,55,43,90,78,53,29.91,29.82,1,0,9,0.00
2013-10-9,61,57,52,54,51,45,91,80,65,29.82,29.70,3,0,10,0.07
2013-10-10,67,57,50,54,49,43,84,73,59,30.01,29.79,1,0,7,0.04
2013-10-11,69,60,54,57,51,46,86,72,59,30.04,29.93,1,0,5,0.00
2013-10-12,71,62,56,59,52,-100,91,73,58,29.97,29.89,1,0,6,0.00
2013-10-13,68,60,55,57,54,44,92,80,67,30.01,29.92,4,0,9,0.00
2013-10-14,77,61,54,61,51,35,91,73,23,30.02,29.90,6,0,11,0.00
2013-10-15,83,79,69,46,35,29,29,21,17,29.93,29.86,4,0,8,0.00
2013-10-16,84,77,70,40,28,23,22,16,13,30.04,29.96,9,2,21,0.00
2013-10-17,81,72,63,49,38,28,48,30,18,30.01,29.90,1,0,6,0.00
2013-10-18,75,69,59,62,42,-100,69,49,26,30.00,29.92,1,0,5,0.00
2013-10-19,78,69,63,58,40,-100,56,38,25,30.01,29.93,0,0,5,0.00
2013-10-20,74,64,57,60,44,-100,93,60,33,29.97,29.89,0,0,4,0.00
2013-10-21,69,60,55,59,55,50,96,86,69,29.99,29.90,0,0,4,0.00
2013-10-22,68,59,51,58,54,46,94,84,69,30.01,29.90,0,0,5,0.00
2013-10-23,68,59,56,57,55,53,94,86,68,29.98,29.91,0,0,3,0.00
2013-10-24,69,61,55,57,55,52,91,79,64,30.03,29.95,0,0,5,0.00
2013-10-25,67,60,55,58,55,53,92,85,72,30.13,30.01,1,0,6,0.00
2013-10-26,75,61,52,62,53,-100,97,81,32,30.09,29.95,0,0,4,0.01
2013-10-27,67,61,55,59,54,46,92,80,63,29.97,29.80,0,0,9,0.01
2013-10-28,67,57,53,54,48,-100,92,77,50,29.92,29.80,1,0,10,0.00
2013-10-29,65,57,51,54,49,44,84,74,65,30.00,29.92,0,0,6,0.00
2013-10-30,67,58,51,56,51,41,92,77,53,30.06,29.99,0,0,4,0.00
2013-10-31,74,70,56,53,46,35,62,43,28,30.09,29.98,1,0,8,0.00
2013-11-1,83,78,62,51,39,29,38,25,17,30.04,29.93,0,0,4,0.00
2013-11-2,79,67,58,54,44,-100,84,47,29,29.94,29.85,3,0,14,0.00
2013-11-3,69,60,55,58,54,51,90,81,62,29.90,29.82,3,0,8,0.00
2013-11-4,69,60,56,56,52,37,90,75,55,29.93,29.78,3,0,7,0.00
2013-11-9,72,59,51,58,48,-100,94,72,46,30.06,29.98,1,0,7,0.00
2013-11-10,78,64,56,59,47,28,67,54,31,30.08,30.04,2,0,7,0.00
2013-11-11,75,68,57,56,48,36,72,49,29,30.11,30.03,1,0,4,0.00
2013-11-12,79,71,60,57,43,33,68,38,19,30.14,30.05,0,0,7,0.00
2013-11-13,90,87,82,41,30,21,19,13,10,29.98,29.86,12,2,25,0.00
2013-11-14,89,77,62,52,26,-100,71,24,12,29.86,29.73,1,0,7,0.00
2013-11-15,70,61,56,58,54,50,91,77,64,29.75,29.67,3,0,9,0.00
2013-11-16,66,58,54,55,50,-100,92,79,64,29.93,29.74,0,0,5,0.00
2013-11-17,67,58,53,56,51,48,86,78,62,30.08,29.93,1,0,7,0.00
2013-11-18,68,57,53,57,51,49,94,81,62,30.14,30.05,0,0,5,0.00
2013-11-19,66,57,52,56,51,48,89,80,65,30.09,29.96,0,0,6,0.00
2013-11-20,67,58,53,57,54,49,97,85,69,29.98,29.87,2,0,8,0.07
2013-11-21,62,57,55,59,54,44,98,91,67,29.88,29.82,9,0,20,0.44
2013-11-22,60,55,53,44,37,-100,67,55,47,29.95,29.82,17,11,33,0.07
2013-11-23,67,57,53,48,38,-100,66,52,37,30.08,29.94,14,5,29,0.00
2013-11-24,67,59,54,48,43,38,72,54,43,30.18,30.06,11,2,23,0.00
2013-11-25,70,61,54,53,42,35,70,51,37,30.23,30.15,1,0,11,0.00
2013-11-26,71,64,56,52,42,36,68,46,31,30.17,30.04,1,0,6,0.00
2013-11-27,73,65,56,46,40,34,65,41,31,30.03,29.86,2,0,8,0.00
2013-11-28,64,58,56,54,48,40,89,70,47,30.05,29.88,3,0,10,0.00
2013-11-29,64,60,55,52,48,45,85,66,53,30.17,30.03,4,1,15,0.05
2013-11-30,74,65,56,52,42,-100,64,46,32,30.18,30.07,4,0,17,0.03
2013-12-1,79,74,69,45,34,26,37,23,16,30.19,30.08,6,0,12,0.00
2013-12-2,73,65,58,47,42,32,54,43,34,30.03,29.89,0,0,6,0.00